| time (UTC) | temp F | wind direction | speed MPH | gust MPH | rain 1hr in | rain 24hr in | rain mn in | humidity % | barometer mb |
| 20260508141337 | 70 | 120 | 2.0 | 9.0 | 0.00 | 0.00 | 0.00 | 27 | 1024.2 |
| 20260508140322 | 69 | 198 | 6.0 | 7.0 | 0.00 | 0.00 | 0.00 | 27 | 1024.0 |
| 20260508135347 | 69 | 189 | 4.0 | 8.0 | 0.00 | 0.00 | 0.00 | 28 | 1024.0 |
| 20260508134333 | 68 | 209 | 3.0 | 7.0 | 0.00 | 0.00 | 0.00 | 29 | 1023.8 |
| 20260508133326 | 67 | 192 | 6.0 | 7.0 | 0.00 | 0.00 | 0.00 | 30 | 1023.7 |
| 20260508132332 | 67 | 202 | 5.0 | 8.0 | 0.00 | 0.00 | 0.00 | 30 | 1023.6 |
| 20260508131336 | 66 | 215 | 6.0 | 10.0 | 0.00 | 0.00 | 0.00 | 31 | 1023.4 |
| 20260508130321 | 66 | 200 | 6.0 | 8.0 | 0.00 | 0.00 | 0.00 | 31 | 1023.3 |
| 20260508125353 | 66 | 210 | 4.0 | 6.0 | 0.00 | 0.00 | 0.00 | 31 | 1023.3 |
| 20260508124320 | 64 | 210 | 4.0 | 6.0 | 0.00 | 0.00 | 0.00 | 31 | 1023.2 |
| 20260508123335 | 65 | 217 | 5.0 | 6.0 | 0.00 | 0.00 | 0.00 | 30 | 1023.1 |
| 20260508122338 | 66 | 209 | 6.0 | 7.0 | 0.00 | 0.00 | 0.00 | 30 | 1023.1 |
| 20260508121322 | 67 | 133 | 3.0 | 4.0 | 0.00 | 0.00 | 0.00 | 28 | 1023.0 |
| 20260508120349 | 67 | 133 | 3.0 | 3.0 | 0.00 | 0.00 | 0.00 | 28 | 1022.9 |
| 20260508115332 | 68 | 133 | 2.0 | 3.0 | 0.00 | 0.00 | 0.00 | 28 | 1022.8 |
| 20260508114338 | 67 | 133 | 2.0 | 4.0 | 0.00 | 0.00 | 0.00 | 27 | 1022.8 |
| 20260508113332 | 67 | 133 | 3.0 | 5.0 | 0.00 | 0.00 | 0.00 | 28 | 1022.6 |
| 20260508112320 | 66 | 131 | 3.0 | 5.0 | 0.00 | 0.00 | 0.00 | 29 | 1022.7 |
| 20260508111329 | 67 | 135 | 2.0 | 4.0 | 0.00 | 0.00 | 0.00 | 28 | 1022.6 |
| 20260508110339 | 67 | 135 | 1.0 | 3.0 | 0.00 | 0.00 | 0.00 | 27 | 1022.6 |
| 20260508105328 | 67 | 135 | 3.0 | 4.0 | 0.00 | 0.00 | 0.00 | 28 | 1022.6 |
| 20260508104357 | 68 | 135 | 2.0 | 4.0 | 0.00 | 0.00 | 0.00 | 27 | 1022.6 |
| 20260508103329 | 67 | 135 | 3.0 | 4.0 | 0.00 | 0.00 | 0.00 | 27 | 1022.5 |
| 20260508102343 | 68 | 135 | 3.0 | 4.0 | 0.00 | 0.00 | 0.00 | 27 | 1022.6 |
| 20260508101329 | 67 | 131 | 2.0 | 3.0 | 0.00 | 0.00 | 0.00 | 27 | 1022.5 |
| 20260508100323 | 68 | 131 | 4.0 | 4.0 | 0.00 | 0.00 | 0.00 | 26 | 1022.4 |
| 20260508095332 | 68 | 128 | 3.0 | 6.0 | 0.00 | 0.00 | 0.00 | 26 | 1022.4 |
| 20260508094321 | 68 | 112 | 2.0 | 3.0 | 0.00 | 0.00 | 0.00 | 27 | 1022.5 |
| 20260508093343 | 69 | 112 | 4.0 | 9.0 | 0.00 | 0.00 | 0.00 | 27 | 1022.5 |
| 20260508092329 | 68 | 173 | 6.0 | 8.0 | 0.00 | 0.00 | 0.00 | 27 | 1022.4 |
| 20260508091337 | 68 | 182 | 2.0 | 7.0 | 0.00 | 0.00 | 0.00 | 27 | 1022.5 |
| 20260508090349 | 69 | 171 | 6.0 | 9.0 | 0.00 | 0.00 | 0.00 | 27 | 1022.4 |
| 20260508085338 | 69 | 179 | 6.0 | 9.0 | 0.00 | 0.00 | 0.00 | 27 | 1022.4 |
| 20260508084328 | 69 | 167 | 6.0 | 9.0 | 0.00 | 0.00 | 0.00 | 26 | 1022.5 |
| 20260508083323 | 69 | 186 | 7.0 | 9.0 | 0.00 | 0.00 | 0.00 | 26 | 1022.6 |
| 20260508082333 | 69 | 167 | 5.0 | 9.0 | 0.00 | 0.00 | 0.00 | 26 | 1022.7 |
| 20260508081339 | 70 | 180 | 6.0 | 9.0 | 0.00 | 0.00 | 0.00 | 26 | 1022.8 |
| 20260508080324 | 70 | 165 | 7.0 | 10.0 | 0.00 | 0.00 | 0.00 | 25 | 1022.9 |
| 20260508075328 | 70 | 217 | 6.0 | 10.0 | 0.00 | 0.00 | 0.00 | 25 | 1023.0 |
| 20260508074359 | 70 | 201 | 6.0 | 9.0 | 0.00 | 0.00 | 0.00 | 25 | 1023.1 |
| 20260508073359 | 70 | 170 | 5.0 | 9.0 | 0.00 | 0.00 | 0.00 | 25 | 1023.1 |
| 20260508072322 | 70 | 183 | 5.0 | 9.0 | 0.00 | 0.00 | 0.00 | 25 | 1023.2 |
| 20260508071326 | 70 | 172 | 5.0 | 7.0 | 0.00 | 0.00 | 0.00 | 24 | 1023.3 |
| 20260508070333 | 70 | 188 | 5.0 | 7.0 | 0.00 | 0.00 | 0.00 | 24 | 1023.3 |
| 20260508065337 | 69 | 171 | 5.0 | 7.0 | 0.00 | 0.00 | 0.00 | 25 | 1023.3 |
| 20260508064323 | 68 | 132 | 4.0 | 8.0 | 0.00 | 0.00 | 0.00 | 26 | 1023.5 |
| 20260508063403 | 68 | 126 | 5.0 | 7.0 | 0.00 | 0.00 | 0.00 | 26 | 1023.5 |
| 20260508062324 | 68 | 148 | 5.0 | 7.0 | 0.00 | 0.00 | 0.00 | 26 | 1023.5 |
| 20260508061333 | 68 | 172 | 3.0 | 9.0 | 0.00 | 0.00 | 0.00 | 27 | 1023.6 |
| 20260508060325 | 69 | 111 | 1.0 | 4.0 | 0.00 | 0.00 | 0.00 | 25 | 1023.5 |
| 20260508055334 | 70 | 111 | 3.0 | 7.0 | 0.00 | 0.00 | 0.00 | 25 | 1023.4 |
| 20260508054323 | 73 | 138 | 2.0 | 3.0 | 0.00 | 0.00 | 0.00 | 22 | 1023.3 |
| 20260508053342 | 73 | 138 | 0.0 | 3.0 | 0.00 | 0.00 | 0.00 | 21 | 1023.4 |
| 20260508052351 | 73 | 161 | 3.0 | 8.0 | 0.00 | 0.00 | 0.00 | 21 | 1023.3 |
| 20260508051338 | 73 | 155 | 4.0 | 8.0 | 0.00 | 0.00 | 0.00 | 21 | 1023.2 |
| 20260508050331 | 74 | 157 | 6.0 | 9.0 | 0.00 | 0.00 | 0.00 | 21 | 1023.2 |
| 20260508045323 | 74 | 173 | 7.0 | 12.0 | 0.00 | 0.00 | 0.00 | 21 | 1023.2 |
| 20260508044335 | 74 | 170 | 3.0 | 10.0 | 0.00 | 0.00 | 0.00 | 21 | 1023.2 |
| 20260508043329 | 74 | 159 | 8.0 | 10.0 | 0.00 | 0.00 | 0.00 | 21 | 1023.1 |
| 20260508042334 | 74 | 213 | 7.0 | 11.0 | 0.00 | 0.00 | 0.00 | 21 | 1023.1 |
| 20260508041338 | 74 | 151 | 9.0 | 17.0 | 0.00 | 0.00 | 0.00 | 21 | 1022.9 |
| 20260508040323 | 74 | 200 | 7.0 | 11.0 | 0.00 | 0.00 | 0.00 | 21 | 1022.8 |
| 20260508035328 | 74 | 158 | 6.0 | 11.0 | 0.00 | 0.00 | 0.00 | 21 | 1022.6 |
| 20260508034339 | 74 | 196 | 7.0 | 11.0 | 0.00 | 0.00 | 0.00 | 21 | 1022.4 |
| 20260508033353 | 74 | 181 | 6.0 | 9.0 | 0.00 | 0.00 | 0.00 | 22 | 1022.3 |
| 20260508032320 | 74 | 196 | 5.0 | 8.0 | 0.00 | 0.00 | 0.00 | 21 | 1022.1 |
| 20260508031325 | 74 | 215 | 7.0 | 12.0 | 0.00 | 0.00 | 0.00 | 21 | 1021.9 |
| 20260508030332 | 75 | 202 | 8.0 | 20.0 | 0.00 | 0.00 | 0.00 | 20 | 1021.8 |
| 20260508025353 | 75 | 255 | 9.0 | 17.0 | 0.00 | 0.00 | 0.00 | 20 | 1021.4 |
| 20260508024340 | 76 | 237 | 14.0 | 20.0 | 0.00 | 0.00 | 0.00 | 20 | 1021.1 |
| 20260508023333 | 76 | 232 | 14.0 | 26.0 | 0.00 | 0.00 | 0.00 | 19 | 1020.8 |
| 20260508022321 | 77 | 245 | 14.0 | 24.0 | 0.00 | 0.00 | 0.00 | 19 | 1020.6 |
| 20260508021330 | 78 | 254 | 19.0 | 27.0 | 0.00 | 0.00 | 0.00 | 18 | 1020.4 |
| 20260508020320 | 80 | 271 | 6.0 | 15.0 | 0.00 | 0.00 | 0.00 | 15 | 1020.0 |
| 20260508015329 | 81 | 252 | 5.0 | 9.0 | 0.00 | 0.00 | 0.00 | 15 | 1019.8 |
| 20260508014347 | 81 | 237 | 6.0 | 12.0 | 0.00 | 0.00 | 0.00 | 14 | 1019.7 |
| 20260508013345 | 82 | 233 | 7.0 | 18.0 | 0.00 | 0.00 | 0.00 | 14 | 1019.6 |
| 20260508012326 | 82 | 227 | 10.0 | 17.0 | 0.00 | 0.00 | 0.00 | 14 | 1019.7 |
| 20260508011334 | 83 | 180 | 10.0 | 20.0 | 0.00 | 0.00 | 0.00 | 14 | 1019.6 |
| 20260508010322 | 84 | 164 | 11.0 | 21.0 | 0.00 | 0.00 | 0.00 | 13 | 1019.6 |
| 20260508005326 | 86 | 208 | 6.0 | 12.0 | 0.00 | 0.00 | 0.00 | 11 | 1019.6 |
| 20260508004330 | 86 | 225 | 7.0 | 11.0 | 0.00 | 0.00 | 0.00 | 12 | 1019.1 |
| 20260508003322 | 87 | 294 | 7.0 | 12.0 | 0.00 | 0.00 | 0.00 | 11 | 1019.2 |
| 20260508002326 | 87 | 331 | 2.0 | 8.0 | 0.00 | 0.00 | 0.00 | 11 | 1019.1 |
| 20260508001330 | 87 | 23 | 4.0 | 9.0 | 0.00 | 0.00 | 0.00 | 11 | 1019.1 |
| 20260508000337 | 86 | 281 | 5.0 | 9.0 | 0.00 | 0.00 | 0.00 | 11 | 1019.2 |
| 20260507235324 | 86 | 323 | 5.0 | 9.0 | 0.00 | 0.00 | 0.00 | 11 | 1019.2 |
| 20260507234334 | 85 | 340 | 6.0 | 10.0 | 0.00 | 0.00 | 0.00 | 11 | 1019.1 |
| 20260507233352 | 86 | 333 | 7.0 | 11.0 | 0.00 | 0.00 | 0.00 | 11 | 1019.2 |
| 20260507232339 | 85 | 355 | 3.0 | 5.0 | 0.00 | 0.00 | 0.00 | 12 | 1019.3 |
| 20260507231322 | 83 | 122 | 10.0 | 14.0 | 0.00 | 0.00 | 0.00 | 12 | 1019.3 |
| 20260507230328 | 85 | 86 | 15.0 | 21.0 | 0.00 | 0.00 | 0.00 | 11 | 1019.4 |
| 20260507225332 | 87 | 65 | 7.0 | 13.0 | 0.00 | 0.00 | 0.00 | 11 | 1019.3 |
| 20260507224357 | 87 | 342 | 10.0 | 14.0 | 0.00 | 0.00 | 0.00 | 11 | 1019.3 |
| 20260507223329 | 85 | 316 | 6.0 | 18.0 | 0.00 | 0.00 | 0.00 | 12 | 1019.2 |
| 20260507222338 | 84 | 309 | 7.0 | 14.0 | 0.00 | 0.00 | 0.00 | 12 | 1019.3 |
| 20260507221325 | 85 | 113 | 7.0 | 13.0 | 0.00 | 0.00 | 0.00 | 12 | 1019.4 |
| 20260507220400 | 85 | 15 | 5.0 | 11.0 | 0.00 | 0.00 | 0.00 | 12 | 1019.5 |
| 20260507215324 | 85 | 281 | 4.0 | 10.0 | 0.00 | 0.00 | 0.00 | 12 | 1019.7 |
| 20260507214329 | 85 | 325 | 11.0 | 17.0 | 0.00 | 0.00 | 0.00 | 12 | 1019.8 |
| 20260507213345 | 87 | 22 | 6.0 | 13.0 | 0.00 | 0.00 | 0.00 | 12 | 1020.2 |
| 20260507212327 | 86 | 17 | 7.0 | 11.0 | 0.00 | 0.00 | 0.00 | 12 | 1020.2 |
| 20260507211331 | 84 | 60 | 6.0 | 14.0 | 0.00 | 0.00 | 0.00 | 12 | 1020.4 |
| 20260507210337 | 84 | 299 | 2.0 | 8.0 | 0.00 | 0.00 | 0.00 | 12 | 1020.5 |
| 20260507205322 | 83 | 62 | 2.0 | 13.0 | 0.00 | 0.00 | 0.00 | 12 | 1020.6 |
| 20260507204330 | 84 | 73 | 4.0 | 10.0 | 0.00 | 0.00 | 0.00 | 12 | 1020.6 |
| 20260507203406 | 84 | 192 | 3.0 | 12.0 | 0.00 | 0.00 | 0.00 | 12 | 1020.7 |
| 20260507202354 | 85 | 231 | 7.0 | 11.0 | 0.00 | 0.00 | 0.00 | 12 | 1020.8 |
| 20260507201322 | 86 | 236 | 3.0 | 8.0 | 0.00 | 0.00 | 0.00 | 12 | 1020.9 |
| 20260507200330 | 85 | 13 | 2.0 | 4.0 | 0.00 | 0.00 | 0.00 | 13 | 1021.1 |
| 20260507195336 | 83 | 240 | 3.0 | 9.0 | 0.00 | 0.00 | 0.00 | 13 | 1021.2 |
| 20260507194342 | 84 | 194 | 2.0 | 10.0 | 0.00 | 0.00 | 0.00 | 13 | 1021.3 |
| 20260507193331 | 82 | 42 | 2.0 | 14.0 | 0.00 | 0.00 | 0.00 | 14 | 1021.5 |
| 20260507192335 | 83 | 100 | 5.0 | 11.0 | 0.00 | 0.00 | 0.00 | 14 | 1021.5 |
| 20260507191359 | 84 | 54 | 4.0 | 10.0 | 0.00 | 0.00 | 0.00 | 14 | 1021.7 |
| 20260507190323 | 82 | 355 | 6.0 | 13.0 | 0.00 | 0.00 | 0.00 | 15 | 1021.8 |
| 20260507185354 | 81 | 269 | 4.0 | 12.0 | 0.00 | 0.00 | 0.00 | 15 | 1021.9 |
| 20260507184338 | 82 | 291 | 4.0 | 11.0 | 0.00 | 0.00 | 0.00 | 16 | 1021.9 |
| 20260507183355 | 82 | 327 | 4.0 | 11.0 | 0.00 | 0.00 | 0.00 | 16 | 1022.0 |
| 20260507182321 | 81 | 301 | 9.0 | 12.0 | 0.00 | 0.00 | 0.00 | 16 | 1022.0 |
| 20260507181350 | 81 | 65 | 6.0 | 11.0 | 0.00 | 0.00 | 0.00 | 16 | 1022.4 |
| 20260507180344 | 81 | 329 | 2.0 | 10.0 | 0.00 | 0.00 | 0.00 | 17 | 1022.5 |
| 20260507175325 | 81 | 324 | 6.0 | 11.0 | 0.00 | 0.00 | 0.00 | 18 | 1022.6 |
| 20260507174345 | 81 | 300 | 2.0 | 9.0 | 0.00 | 0.00 | 0.00 | 18 | 1022.7 |
| 20260507173359 | 80 | 38 | 2.0 | 10.0 | 0.00 | 0.00 | 0.00 | 19 | 1022.8 |
| 20260507172323 | 79 | 330 | 2.0 | 7.0 | 0.00 | 0.00 | 0.00 | 19 | 1023.1 |
| 20260507171327 | 79 | 284 | 2.0 | 6.0 | 0.00 | 0.00 | 0.00 | 19 | 1023.1 |
| 20260507170332 | 79 | 334 | 6.0 | 9.0 | 0.00 | 0.00 | 0.00 | 19 | 1023.2 |
| 20260507165338 | 78 | 205 | 1.0 | 6.0 | 0.00 | 0.00 | 0.00 | 19 | 1023.3 |
| 20260507164325 | 77 | 320 | 1.0 | 5.0 | 0.00 | 0.00 | 0.00 | 20 | 1023.3 |
| 20260507163339 | 77 | 94 | 2.0 | 5.0 | 0.00 | 0.00 | 0.00 | 20 | 1023.4 |
| 20260507162329 | 76 | 248 | 0.0 | 8.0 | 0.00 | 0.00 | 0.00 | 20 | 1023.5 |
| 20260507161334 | 75 | 284 | 2.0 | 4.0 | 0.00 | 0.00 | 0.00 | 22 | 1023.6 |
| 20260507160341 | 74 | 318 | 1.0 | 4.0 | 0.00 | 0.00 | 0.00 | 23 | 1023.6 |
| 20260507155324 | 73 | 343 | 1.0 | 5.0 | 0.00 | 0.00 | 0.00 | 23 | 1023.8 |
| 20260507154331 | 73 | 344 | 2.0 | 5.0 | 0.00 | 0.00 | 0.00 | 24 | 1023.8 |
| 20260507153322 | 73 | 333 | 2.0 | 4.0 | 0.00 | 0.00 | 0.00 | 24 | 1023.8 |
| 20260507152357 | 72 | 23 | 2.0 | 5.0 | 0.00 | 0.00 | 0.00 | 24 | 1023.8 |
| 20260507151338 | 71 | 331 | 1.0 | 4.0 | 0.00 | 0.00 | 0.00 | 24 | 1023.9 |
| 20260507150344 | 70 | 235 | 1.0 | 5.0 | 0.00 | 0.00 | 0.00 | 25 | 1023.9 |
| 20260507145321 | 70 | 213 | 3.0 | 4.0 | 0.00 | 0.00 | 0.00 | 26 | 1023.9 |
| 20260507144325 | 71 | 127 | 0.0 | 3.0 | 0.00 | 0.00 | 0.00 | 24 | 1023.9 |
| 20260507143340 | 70 | 127 | 0.0 | 2.0 | 0.00 | 0.00 | 0.00 | 23 | 1023.9 |
| 20260507142327 | 69 | 127 | 0.0 | 2.0 | 0.00 | 0.00 | 0.00 | 24 | 1024.0 |